sensor_id;sensor_type;location;lat;lon;timestamp;P1;durP1;ratioP1;P2;durP2;ratioP2
11877;SDS011;5998;42.676;23.268;2023-06-22T00:00:40;8.93;;;8.10;;
11877;SDS011;5998;42.676;23.268;2023-06-22T00:03:07;8.83;;;8.00;;
11877;SDS011;5998;42.676;23.268;2023-06-22T00:05:34;9.17;;;8.27;;
11877;SDS011;5998;42.676;23.268;2023-06-22T00:08:01;9.13;;;8.13;;
11877;SDS011;5998;42.676;23.268;2023-06-22T00:10:28;10.93;;;8.70;;
11877;SDS011;5998;42.676;23.268;2023-06-22T00:12:54;9.30;;;8.50;;
11877;SDS011;5998;42.676;23.268;2023-06-22T00:15:20;9.30;;;8.50;;
11877;SDS011;5998;42.676;23.268;2023-06-22T00:17:48;8.97;;;8.07;;
11877;SDS011;5998;42.676;23.268;2023-06-22T00:20:15;8.87;;;7.83;;
11877;SDS011;5998;42.676;23.268;2023-06-22T00:22:42;8.63;;;7.83;;
11877;SDS011;5998;42.676;23.268;2023-06-22T00:25:08;8.57;;;7.77;;
11877;SDS011;5998;42.676;23.268;2023-06-22T00:27:35;8.80;;;8.00;;
11877;SDS011;5998;42.676;23.268;2023-06-22T00:30:01;8.50;;;7.70;;
11877;SDS011;5998;42.676;23.268;2023-06-22T00:32:28;7.73;;;7.13;;
11877;SDS011;5998;42.676;23.268;2023-06-22T00:34:56;7.80;;;7.10;;
11877;SDS011;5998;42.676;23.268;2023-06-22T00:37:22;7.37;;;6.73;;
11877;SDS011;5998;42.676;23.268;2023-06-22T00:39:50;7.77;;;7.10;;
11877;SDS011;5998;42.676;23.268;2023-06-22T00:42:17;7.90;;;7.10;;
11877;SDS011;5998;42.676;23.268;2023-06-22T00:44:43;7.50;;;6.80;;
11877;SDS011;5998;42.676;23.268;2023-06-22T00:47:10;8.00;;;7.20;;
11877;SDS011;5998;42.676;23.268;2023-06-22T00:49:37;8.70;;;6.97;;
11877;SDS011;5998;42.676;23.268;2023-06-22T00:52:06;7.40;;;6.70;;
11877;SDS011;5998;42.676;23.268;2023-06-22T00:54:34;9.33;;;6.97;;
11877;SDS011;5998;42.676;23.268;2023-06-22T00:57:01;8.80;;;7.07;;
11877;SDS011;5998;42.676;23.268;2023-06-22T00:59:27;7.87;;;7.17;;
11877;SDS011;5998;42.676;23.268;2023-06-22T01:01:54;8.13;;;7.30;;
11877;SDS011;5998;42.676;23.268;2023-06-22T01:04:21;9.77;;;7.23;;
11877;SDS011;5998;42.676;23.268;2023-06-22T01:06:51;8.60;;;7.00;;
11877;SDS011;5998;42.676;23.268;2023-06-22T01:09:22;10.27;;;7.17;;
11877;SDS011;5998;42.676;23.268;2023-06-22T01:11:50;9.23;;;8.37;;
11877;SDS011;5998;42.676;23.268;2023-06-22T01:14:19;9.90;;;7.23;;
11877;SDS011;5998;42.676;23.268;2023-06-22T01:16:47;7.87;;;7.00;;
11877;SDS011;5998;42.676;23.268;2023-06-22T01:19:27;8.23;;;7.23;;
11877;SDS011;5998;42.676;23.268;2023-06-22T01:21:55;9.67;;;6.80;;
11877;SDS011;5998;42.676;23.268;2023-06-22T01:24:25;7.73;;;7.03;;
11877;SDS011;5998;42.676;23.268;2023-06-22T01:26:54;7.67;;;7.07;;
11877;SDS011;5998;42.676;23.268;2023-06-22T01:29:24;7.67;;;6.80;;
11877;SDS011;5998;42.676;23.268;2023-06-22T01:31:52;7.37;;;6.77;;
11877;SDS011;5998;42.676;23.268;2023-06-22T01:34:20;8.67;;;6.80;;
11877;SDS011;5998;42.676;23.268;2023-06-22T01:36:47;8.10;;;7.20;;
11877;SDS011;5998;42.676;23.268;2023-06-22T01:39:14;8.00;;;7.20;;
11877;SDS011;5998;42.676;23.268;2023-06-22T01:41:41;8.30;;;7.60;;
11877;SDS011;5998;42.676;23.268;2023-06-22T01:44:08;7.30;;;6.70;;
11877;SDS011;5998;42.676;23.268;2023-06-22T01:46:36;9.70;;;7.67;;
11877;SDS011;5998;42.676;23.268;2023-06-22T01:49:03;7.77;;;6.97;;
11877;SDS011;5998;42.676;23.268;2023-06-22T01:51:30;8.50;;;7.70;;
11877;SDS011;5998;42.676;23.268;2023-06-22T01:53:56;9.10;;;7.83;;
11877;SDS011;5998;42.676;23.268;2023-06-22T01:56:23;7.70;;;6.93;;
11877;SDS011;5998;42.676;23.268;2023-06-22T01:58:50;8.60;;;7.70;;
11877;SDS011;5998;42.676;23.268;2023-06-22T02:01:18;8.47;;;7.63;;
11877;SDS011;5998;42.676;23.268;2023-06-22T02:03:50;8.97;;;7.67;;
11877;SDS011;5998;42.676;23.268;2023-06-22T02:06:20;12.67;;;8.17;;
11877;SDS011;5998;42.676;23.268;2023-06-22T02:08:48;10.33;;;7.57;;
11877;SDS011;5998;42.676;23.268;2023-06-22T02:11:16;10.93;;;7.33;;
11877;SDS011;5998;42.676;23.268;2023-06-22T02:13:42;10.27;;;7.60;;
11877;SDS011;5998;42.676;23.268;2023-06-22T02:16:09;9.60;;;7.60;;
11877;SDS011;5998;42.676;23.268;2023-06-22T02:18:36;9.37;;;7.10;;
11877;SDS011;5998;42.676;23.268;2023-06-22T02:21:06;8.23;;;7.47;;
11877;SDS011;5998;42.676;23.268;2023-06-22T02:23:33;16.43;;;8.57;;
11877;SDS011;5998;42.676;23.268;2023-06-22T02:26:00;12.17;;;8.07;;
11877;SDS011;5998;42.676;23.268;2023-06-22T02:28:27;8.93;;;6.97;;
11877;SDS011;5998;42.676;23.268;2023-06-22T02:30:53;8.53;;;7.73;;
11877;SDS011;5998;42.676;23.268;2023-06-22T02:33:20;10.57;;;8.23;;
11877;SDS011;5998;42.676;23.268;2023-06-22T02:35:46;9.70;;;7.90;;
11877;SDS011;5998;42.676;23.268;2023-06-22T02:38:15;10.50;;;7.77;;
11877;SDS011;5998;42.676;23.268;2023-06-22T02:40:42;12.30;;;7.93;;
11877;SDS011;5998;42.676;23.268;2023-06-22T02:43:09;9.70;;;8.37;;
11877;SDS011;5998;42.676;23.268;2023-06-22T02:45:35;10.50;;;8.53;;
11877;SDS011;5998;42.676;23.268;2023-06-22T02:48:02;11.47;;;8.57;;
11877;SDS011;5998;42.676;23.268;2023-06-22T02:50:28;9.00;;;8.20;;
11877;SDS011;5998;42.676;23.268;2023-06-22T02:52:55;9.93;;;8.23;;
11877;SDS011;5998;42.676;23.268;2023-06-22T02:55:23;14.53;;;9.03;;
11877;SDS011;5998;42.676;23.268;2023-06-22T02:57:49;9.60;;;8.67;;
11877;SDS011;5998;42.676;23.268;2023-06-22T03:00:18;10.03;;;8.00;;
11877;SDS011;5998;42.676;23.268;2023-06-22T03:02:44;11.20;;;8.90;;
11877;SDS011;5998;42.676;23.268;2023-06-22T03:05:11;16.83;;;9.30;;
11877;SDS011;5998;42.676;23.268;2023-06-22T03:07:39;15.33;;;8.70;;
11877;SDS011;5998;42.676;23.268;2023-06-22T03:10:05;15.83;;;9.07;;
11877;SDS011;5998;42.676;23.268;2023-06-22T03:12:33;14.53;;;10.47;;
11877;SDS011;5998;42.676;23.268;2023-06-22T03:15:00;12.33;;;9.73;;
11877;SDS011;5998;42.676;23.268;2023-06-22T03:17:26;19.60;;;10.17;;
11877;SDS011;5998;42.676;23.268;2023-06-22T03:19:53;22.27;;;10.37;;
11877;SDS011;5998;42.676;23.268;2023-06-22T03:22:19;17.13;;;10.87;;
11877;SDS011;5998;42.676;23.268;2023-06-22T03:24:46;14.50;;;10.20;;
11877;SDS011;5998;42.676;23.268;2023-06-22T03:27:12;15.40;;;10.93;;
11877;SDS011;5998;42.676;23.268;2023-06-22T03:29:40;13.30;;;10.03;;
11877;SDS011;5998;42.676;23.268;2023-06-22T03:32:07;15.23;;;10.10;;
11877;SDS011;5998;42.676;23.268;2023-06-22T03:34:33;11.30;;;10.03;;
11877;SDS011;5998;42.676;23.268;2023-06-22T03:36:59;14.13;;;10.10;;
11877;SDS011;5998;42.676;23.268;2023-06-22T03:39:26;16.80;;;10.93;;
11877;SDS011;5998;42.676;23.268;2023-06-22T03:41:53;23.27;;;11.43;;
11877;SDS011;5998;42.676;23.268;2023-06-22T03:44:19;21.83;;;10.93;;
11877;SDS011;5998;42.676;23.268;2023-06-22T03:46:47;18.13;;;10.37;;
11877;SDS011;5998;42.676;23.268;2023-06-22T03:49:13;16.57;;;11.60;;
11877;SDS011;5998;42.676;23.268;2023-06-22T03:51:40;20.33;;;12.40;;
11877;SDS011;5998;42.676;23.268;2023-06-22T03:54:06;14.67;;;11.13;;
11877;SDS011;5998;42.676;23.268;2023-06-22T03:56:32;15.33;;;12.13;;
11877;SDS011;5998;42.676;23.268;2023-06-22T03:58:59;15.80;;;11.57;;
11877;SDS011;5998;42.676;23.268;2023-06-22T04:01:25;21.47;;;12.73;;
11877;SDS011;5998;42.676;23.268;2023-06-22T04:03:53;27.03;;;12.77;;
11877;SDS011;5998;42.676;23.268;2023-06-22T04:06:20;19.23;;;12.43;;
11877;SDS011;5998;42.676;23.268;2023-06-22T04:08:47;26.07;;;16.53;;
11877;SDS011;5998;42.676;23.268;2023-06-22T04:11:16;29.10;;;20.07;;
11877;SDS011;5998;42.676;23.268;2023-06-22T04:13:42;22.73;;;13.13;;
11877;SDS011;5998;42.676;23.268;2023-06-22T04:16:09;18.47;;;12.90;;
11877;SDS011;5998;42.676;23.268;2023-06-22T04:18:35;37.57;;;32.43;;
11877;SDS011;5998;42.676;23.268;2023-06-22T04:21:03;16.30;;;14.50;;
11877;SDS011;5998;42.676;23.268;2023-06-22T04:23:30;20.70;;;13.87;;
11877;SDS011;5998;42.676;23.268;2023-06-22T04:25:56;15.47;;;13.00;;
11877;SDS011;5998;42.676;23.268;2023-06-22T04:28:22;14.23;;;12.73;;
11877;SDS011;5998;42.676;23.268;2023-06-22T04:30:49;17.70;;;12.60;;
11877;SDS011;5998;42.676;23.268;2023-06-22T04:33:16;13.27;;;11.77;;
11877;SDS011;5998;42.676;23.268;2023-06-22T04:35:44;14.67;;;12.30;;
11877;SDS011;5998;42.676;23.268;2023-06-22T04:38:12;12.93;;;11.77;;
11877;SDS011;5998;42.676;23.268;2023-06-22T04:40:39;13.90;;;11.70;;
11877;SDS011;5998;42.676;23.268;2023-06-22T04:43:05;13.37;;;11.90;;
11877;SDS011;5998;42.676;23.268;2023-06-22T04:45:32;14.10;;;12.37;;
11877;SDS011;5998;42.676;23.268;2023-06-22T04:47:58;20.27;;;13.40;;
11877;SDS011;5998;42.676;23.268;2023-06-22T04:50:25;14.27;;;12.63;;
11877;SDS011;5998;42.676;23.268;2023-06-22T04:52:51;14.27;;;12.77;;
11877;SDS011;5998;42.676;23.268;2023-06-22T04:55:19;25.97;;;13.80;;
11877;SDS011;5998;42.676;23.268;2023-06-22T04:57:46;24.37;;;15.27;;
11877;SDS011;5998;42.676;23.268;2023-06-22T05:00:14;16.50;;;13.50;;
11877;SDS011;5998;42.676;23.268;2023-06-22T05:02:42;15.20;;;13.60;;
11877;SDS011;5998;42.676;23.268;2023-06-22T05:05:09;18.53;;;13.33;;
11877;SDS011;5998;42.676;23.268;2023-06-22T05:07:38;14.17;;;12.73;;
11877;SDS011;5998;42.676;23.268;2023-06-22T05:10:08;14.77;;;13.17;;
11877;SDS011;5998;42.676;23.268;2023-06-22T05:12:35;16.13;;;13.27;;
11877;SDS011;5998;42.676;23.268;2023-06-22T05:15:02;15.20;;;12.33;;
11877;SDS011;5998;42.676;23.268;2023-06-22T05:17:29;13.23;;;12.03;;
11877;SDS011;5998;42.676;23.268;2023-06-22T05:19:55;13.83;;;12.17;;
11877;SDS011;5998;42.676;23.268;2023-06-22T05:22:21;14.47;;;12.33;;
11877;SDS011;5998;42.676;23.268;2023-06-22T05:24:48;13.87;;;11.37;;
11877;SDS011;5998;42.676;23.268;2023-06-22T05:27:14;14.67;;;11.67;;
11877;SDS011;5998;42.676;23.268;2023-06-22T05:29:42;14.60;;;11.43;;
11877;SDS011;5998;42.676;23.268;2023-06-22T05:32:09;12.90;;;11.67;;
11877;SDS011;5998;42.676;23.268;2023-06-22T05:34:35;15.67;;;11.10;;
11877;SDS011;5998;42.676;23.268;2023-06-22T05:37:02;12.93;;;10.57;;
11877;SDS011;5998;42.676;23.268;2023-06-22T05:39:28;13.03;;;11.30;;
11877;SDS011;5998;42.676;23.268;2023-06-22T05:41:54;16.93;;;13.40;;
11877;SDS011;5998;42.676;23.268;2023-06-22T05:44:21;13.43;;;12.13;;
11877;SDS011;5998;42.676;23.268;2023-06-22T05:46:49;18.20;;;13.10;;
11877;SDS011;5998;42.676;23.268;2023-06-22T05:49:15;14.60;;;13.03;;
11877;SDS011;5998;42.676;23.268;2023-06-22T05:51:42;15.43;;;13.67;;
11877;SDS011;5998;42.676;23.268;2023-06-22T05:54:08;15.10;;;13.53;;
11877;SDS011;5998;42.676;23.268;2023-06-22T05:56:35;15.47;;;13.70;;
11877;SDS011;5998;42.676;23.268;2023-06-22T05:59:01;15.00;;;13.40;;
11877;SDS011;5998;42.676;23.268;2023-06-22T06:01:28;14.10;;;12.70;;
11877;SDS011;5998;42.676;23.268;2023-06-22T06:04:01;15.40;;;12.93;;
11877;SDS011;5998;42.676;23.268;2023-06-22T06:06:27;15.37;;;12.97;;
11877;SDS011;5998;42.676;23.268;2023-06-22T06:08:54;16.07;;;12.67;;
11877;SDS011;5998;42.676;23.268;2023-06-22T06:11:21;19.57;;;13.17;;
11877;SDS011;5998;42.676;23.268;2023-06-22T06:13:47;14.87;;;12.40;;
11877;SDS011;5998;42.676;23.268;2023-06-22T06:16:14;13.13;;;11.90;;
11877;SDS011;5998;42.676;23.268;2023-06-22T06:18:40;14.03;;;12.60;;
11877;SDS011;5998;42.676;23.268;2023-06-22T06:21:08;17.70;;;11.57;;
11877;SDS011;5998;42.676;23.268;2023-06-22T06:23:34;15.00;;;11.47;;
11877;SDS011;5998;42.676;23.268;2023-06-22T06:26:01;13.17;;;11.87;;
11877;SDS011;5998;42.676;23.268;2023-06-22T06:28:27;15.13;;;11.60;;
11877;SDS011;5998;42.676;23.268;2023-06-22T06:30:54;16.87;;;11.33;;
11877;SDS011;5998;42.676;23.268;2023-06-22T06:33:20;14.43;;;11.13;;
11877;SDS011;5998;42.676;23.268;2023-06-22T06:35:46;15.00;;;11.50;;
11877;SDS011;5998;42.676;23.268;2023-06-22T06:38:14;13.80;;;10.90;;
11877;SDS011;5998;42.676;23.268;2023-06-22T06:40:41;12.47;;;11.23;;
11877;SDS011;5998;42.676;23.268;2023-06-22T06:43:07;15.17;;;11.47;;
11877;SDS011;5998;42.676;23.268;2023-06-22T06:45:33;12.05;;;10.82;;
11877;SDS011;5998;42.676;23.268;2023-06-22T06:48:00;11.57;;;10.00;;
11877;SDS011;5998;42.676;23.268;2023-06-22T06:50:27;12.00;;;10.88;;
11877;SDS011;5998;42.676;23.268;2023-06-22T06:52:54;13.82;;;12.27;;
11877;SDS011;5998;42.676;23.268;2023-06-22T06:55:22;15.93;;;10.68;;
11877;SDS011;5998;42.676;23.268;2023-06-22T06:57:50;15.15;;;11.30;;
11877;SDS011;5998;42.676;23.268;2023-06-22T07:00:18;11.52;;;10.20;;
11877;SDS011;5998;42.676;23.268;2023-06-22T07:02:44;11.75;;;10.63;;
11877;SDS011;5998;42.676;23.268;2023-06-22T07:05:13;12.85;;;9.70;;
11877;SDS011;5998;42.676;23.268;2023-06-22T07:07:40;13.23;;;10.25;;
11877;SDS011;5998;42.676;23.268;2023-06-22T07:10:07;11.70;;;10.50;;
11877;SDS011;5998;42.676;23.268;2023-06-22T07:12:35;11.75;;;10.65;;
11877;SDS011;5998;42.676;23.268;2023-06-22T07:15:02;11.43;;;10.25;;
11877;SDS011;5998;42.676;23.268;2023-06-22T07:17:29;12.63;;;11.43;;
11877;SDS011;5998;42.676;23.268;2023-06-22T07:19:55;11.80;;;10.77;;
11877;SDS011;5998;42.676;23.268;2023-06-22T07:22:22;16.55;;;12.48;;
11877;SDS011;5998;42.676;23.268;2023-06-22T07:24:48;16.92;;;11.30;;
11877;SDS011;5998;42.676;23.268;2023-06-22T07:27:15;15.20;;;10.85;;
11877;SDS011;5998;42.676;23.268;2023-06-22T07:29:45;10.60;;;9.50;;
11877;SDS011;5998;42.676;23.268;2023-06-22T07:32:12;11.10;;;10.00;;
11877;SDS011;5998;42.676;23.268;2023-06-22T07:34:38;10.93;;;9.82;;
11877;SDS011;5998;42.676;23.268;2023-06-22T07:37:04;10.65;;;9.50;;
11877;SDS011;5998;42.676;23.268;2023-06-22T07:39:31;11.13;;;10.13;;
11877;SDS011;5998;42.676;23.268;2023-06-22T07:41:57;12.80;;;10.30;;
11877;SDS011;5998;42.676;23.268;2023-06-22T07:44:24;13.68;;;10.85;;
11877;SDS011;5998;42.676;23.268;2023-06-22T07:46:52;14.48;;;10.38;;
11877;SDS011;5998;42.676;23.268;2023-06-22T07:49:18;11.38;;;9.85;;
11877;SDS011;5998;42.676;23.268;2023-06-22T07:51:45;15.57;;;11.25;;
11877;SDS011;5998;42.676;23.268;2023-06-22T07:54:11;16.02;;;12.05;;
11877;SDS011;5998;42.676;23.268;2023-06-22T07:56:37;18.77;;;10.50;;
11877;SDS011;5998;42.676;23.268;2023-06-22T07:59:04;15.07;;;10.82;;
11877;SDS011;5998;42.676;23.268;2023-06-22T08:01:30;11.43;;;10.25;;
11877;SDS011;5998;42.676;23.268;2023-06-22T08:03:58;12.23;;;11.05;;
11877;SDS011;5998;42.676;23.268;2023-06-22T08:06:25;12.10;;;10.85;;
11877;SDS011;5998;42.676;23.268;2023-06-22T08:08:51;12.13;;;11.02;;
11877;SDS011;5998;42.676;23.268;2023-06-22T08:11:19;12.20;;;10.87;;
11877;SDS011;5998;42.676;23.268;2023-06-22T08:13:47;12.05;;;10.90;;
11877;SDS011;5998;42.676;23.268;2023-06-22T08:16:13;11.25;;;10.15;;
11877;SDS011;5998;42.676;23.268;2023-06-22T08:18:40;13.65;;;10.70;;
11877;SDS011;5998;42.676;23.268;2023-06-22T08:21:08;12.15;;;11.07;;
11877;SDS011;5998;42.676;23.268;2023-06-22T08:23:36;14.27;;;10.77;;
11877;SDS011;5998;42.676;23.268;2023-06-22T08:26:02;16.40;;;11.57;;
11877;SDS011;5998;42.676;23.268;2023-06-22T08:28:28;12.30;;;10.98;;
11877;SDS011;5998;42.676;23.268;2023-06-22T08:30:55;14.05;;;11.25;;
11877;SDS011;5998;42.676;23.268;2023-06-22T08:33:21;13.13;;;11.15;;
11877;SDS011;5998;42.676;23.268;2023-06-22T08:35:53;11.30;;;10.20;;
11877;SDS011;5998;42.676;23.268;2023-06-22T08:38:21;11.85;;;10.68;;
11877;SDS011;5998;42.676;23.268;2023-06-22T08:40:47;13.65;;;11.88;;
11877;SDS011;5998;42.676;23.268;2023-06-22T08:43:14;12.65;;;10.95;;
11877;SDS011;5998;42.676;23.268;2023-06-22T08:45:40;11.07;;;10.15;;
11877;SDS011;5998;42.676;23.268;2023-06-22T08:48:07;16.27;;;10.55;;
11877;SDS011;5998;42.676;23.268;2023-06-22T08:50:33;10.80;;;9.73;;
11877;SDS011;5998;42.676;23.268;2023-06-22T08:53:00;11.13;;;10.07;;
11877;SDS011;5998;42.676;23.268;2023-06-22T08:55:27;10.95;;;9.90;;
11877;SDS011;5998;42.676;23.268;2023-06-22T08:57:54;10.27;;;9.43;;
11877;SDS011;5998;42.676;23.268;2023-06-22T09:00:20;10.60;;;9.70;;
11877;SDS011;5998;42.676;23.268;2023-06-22T09:02:47;11.00;;;9.90;;
11877;SDS011;5998;42.676;23.268;2023-06-22T09:05:14;10.13;;;9.30;;
11877;SDS011;5998;42.676;23.268;2023-06-22T09:07:40;9.68;;;8.82;;
11877;SDS011;5998;42.676;23.268;2023-06-22T09:10:08;9.90;;;9.00;;
11877;SDS011;5998;42.676;23.268;2023-06-22T09:12:36;10.45;;;9.35;;
11877;SDS011;5998;42.676;23.268;2023-06-22T09:15:03;10.57;;;9.52;;
11877;SDS011;5998;42.676;23.268;2023-06-22T09:17:31;9.27;;;8.20;;
11877;SDS011;5998;42.676;23.268;2023-06-22T09:19:58;9.15;;;8.20;;
11877;SDS011;5998;42.676;23.268;2023-06-22T09:22:25;8.45;;;7.75;;
11877;SDS011;5998;42.676;23.268;2023-06-22T09:24:54;8.00;;;7.20;;
11877;SDS011;5998;42.676;23.268;2023-06-22T09:27:20;11.02;;;7.78;;
11877;SDS011;5998;42.676;23.268;2023-06-22T09:32:51;8.35;;;7.55;;
11877;SDS011;5998;42.676;23.268;2023-06-22T09:35:18;8.40;;;7.70;;
11877;SDS011;5998;42.676;23.268;2023-06-22T09:37:45;8.05;;;7.43;;
11877;SDS011;5998;42.676;23.268;2023-06-22T09:40:11;8.20;;;7.60;;
11877;SDS011;5998;42.676;23.268;2023-06-22T09:42:41;8.38;;;7.57;;
11877;SDS011;5998;42.676;23.268;2023-06-22T09:45:08;8.35;;;7.65;;
11877;SDS011;5998;42.676;23.268;2023-06-22T09:47:34;8.10;;;7.35;;
11877;SDS011;5998;42.676;23.268;2023-06-22T09:50:02;8.75;;;8.05;;
11877;SDS011;5998;42.676;23.268;2023-06-22T09:52:28;10.60;;;8.30;;
11877;SDS011;5998;42.676;23.268;2023-06-22T09:54:55;8.75;;;7.47;;
11877;SDS011;5998;42.676;23.268;2023-06-22T09:57:21;8.27;;;7.60;;
11877;SDS011;5998;42.676;23.268;2023-06-22T09:59:48;8.43;;;7.68;;
11877;SDS011;5998;42.676;23.268;2023-06-22T10:02:14;8.60;;;7.75;;
11877;SDS011;5998;42.676;23.268;2023-06-22T10:04:41;9.18;;;8.38;;
11877;SDS011;5998;42.676;23.268;2023-06-22T10:07:09;9.70;;;8.00;;
11877;SDS011;5998;42.676;23.268;2023-06-22T10:09:36;9.40;;;8.65;;
11877;SDS011;5998;42.676;23.268;2023-06-22T10:12:02;10.75;;;9.05;;
11877;SDS011;5998;42.676;23.268;2023-06-22T10:14:29;10.00;;;8.63;;
11877;SDS011;5998;42.676;23.268;2023-06-22T10:16:55;9.23;;;8.35;;
11877;SDS011;5998;42.676;23.268;2023-06-22T10:19:21;8.23;;;7.53;;
11877;SDS011;5998;42.676;23.268;2023-06-22T10:21:48;10.23;;;9.43;;
11877;SDS011;5998;42.676;23.268;2023-06-22T10:24:16;9.05;;;8.20;;
11877;SDS011;5998;42.676;23.268;2023-06-22T10:26:42;10.02;;;8.40;;
11877;SDS011;5998;42.676;23.268;2023-06-22T10:29:08;9.27;;;8.48;;
11877;SDS011;5998;42.676;23.268;2023-06-22T10:31:35;9.48;;;8.43;;
11877;SDS011;5998;42.676;23.268;2023-06-22T10:34:01;11.10;;;9.20;;
11877;SDS011;5998;42.676;23.268;2023-06-22T10:36:28;8.90;;;8.30;;
11877;SDS011;5998;42.676;23.268;2023-06-22T10:38:54;9.80;;;8.90;;
11877;SDS011;5998;42.676;23.268;2023-06-22T10:41:25;8.68;;;8.02;;
11877;SDS011;5998;42.676;23.268;2023-06-22T10:43:54;8.65;;;7.88;;
11877;SDS011;5998;42.676;23.268;2023-06-22T10:46:20;8.95;;;8.15;;
11877;SDS011;5998;42.676;23.268;2023-06-22T10:48:47;10.65;;;8.70;;
11877;SDS011;5998;42.676;23.268;2023-06-22T10:51:13;9.60;;;8.63;;
11877;SDS011;5998;42.676;23.268;2023-06-22T10:53:40;10.05;;;9.15;;
11877;SDS011;5998;42.676;23.268;2023-06-22T10:56:06;9.40;;;8.50;;
11877;SDS011;5998;42.676;23.268;2023-06-22T10:58:34;9.20;;;8.48;;
11877;SDS011;5998;42.676;23.268;2023-06-22T11:01:01;10.68;;;8.90;;
11877;SDS011;5998;42.676;23.268;2023-06-22T11:03:28;10.13;;;9.05;;
11877;SDS011;5998;42.676;23.268;2023-06-22T11:05:54;9.77;;;8.98;;
11877;SDS011;5998;42.676;23.268;2023-06-22T11:08:21;9.48;;;8.57;;
11877;SDS011;5998;42.676;23.268;2023-06-22T11:10:47;10.10;;;9.20;;
11877;SDS011;5998;42.676;23.268;2023-06-22T11:13:14;9.73;;;8.80;;
11877;SDS011;5998;42.676;23.268;2023-06-22T11:15:42;9.48;;;8.68;;
11877;SDS011;5998;42.676;23.268;2023-06-22T11:18:08;9.82;;;8.82;;
11877;SDS011;5998;42.676;23.268;2023-06-22T11:20:35;10.65;;;9.60;;
11877;SDS011;5998;42.676;23.268;2023-06-22T11:23:04;9.98;;;9.00;;
11877;SDS011;5998;42.676;23.268;2023-06-22T11:25:30;10.10;;;9.10;;
11877;SDS011;5998;42.676;23.268;2023-06-22T11:27:57;10.32;;;9.45;;
11877;SDS011;5998;42.676;23.268;2023-06-22T11:30:23;9.90;;;8.98;;
11877;SDS011;5998;42.676;23.268;2023-06-22T11:32:51;12.23;;;8.48;;
11877;SDS011;5998;42.676;23.268;2023-06-22T11:35:17;10.07;;;9.18;;
11877;SDS011;5998;42.676;23.268;2023-06-22T11:37:44;10.02;;;9.13;;
11877;SDS011;5998;42.676;23.268;2023-06-22T11:40:11;10.15;;;9.20;;
11877;SDS011;5998;42.676;23.268;2023-06-22T11:42:37;13.48;;;9.20;;
11877;SDS011;5998;42.676;23.268;2023-06-22T11:45:04;19.17;;;11.00;;
11877;SDS011;5998;42.676;23.268;2023-06-22T11:47:31;11.45;;;9.88;;
11877;SDS011;5998;42.676;23.268;2023-06-22T11:49:59;10.35;;;9.35;;
11877;SDS011;5998;42.676;23.268;2023-06-22T11:52:26;11.45;;;10.40;;
11877;SDS011;5998;42.676;23.268;2023-06-22T11:54:52;12.88;;;11.68;;
11877;SDS011;5998;42.676;23.268;2023-06-22T11:57:19;13.05;;;11.85;;
11877;SDS011;5998;42.676;23.268;2023-06-22T11:59:45;14.63;;;11.15;;
11877;SDS011;5998;42.676;23.268;2023-06-22T12:02:12;14.32;;;11.75;;
11877;SDS011;5998;42.676;23.268;2023-06-22T12:04:38;12.23;;;10.80;;
11877;SDS011;5998;42.676;23.268;2023-06-22T12:07:06;14.20;;;12.82;;
11877;SDS011;5998;42.676;23.268;2023-06-22T12:09:32;13.85;;;11.50;;
11877;SDS011;5998;42.676;23.268;2023-06-22T12:11:59;15.35;;;11.80;;
11877;SDS011;5998;42.676;23.268;2023-06-22T12:14:25;18.27;;;12.80;;
11877;SDS011;5998;42.676;23.268;2023-06-22T12:16:52;13.88;;;11.52;;
11877;SDS011;5998;42.676;23.268;2023-06-22T12:19:18;15.82;;;12.32;;
11877;SDS011;5998;42.676;23.268;2023-06-22T12:21:45;22.80;;;12.90;;
11877;SDS011;5998;42.676;23.268;2023-06-22T12:24:13;13.48;;;11.98;;
11877;SDS011;5998;42.676;23.268;2023-06-22T12:26:39;14.27;;;11.77;;
11877;SDS011;5998;42.676;23.268;2023-06-22T12:29:05;12.05;;;10.68;;
11877;SDS011;5998;42.676;23.268;2023-06-22T12:31:32;11.53;;;10.23;;
11877;SDS011;5998;42.676;23.268;2023-06-22T12:33:59;14.10;;;10.90;;
11877;SDS011;5998;42.676;23.268;2023-06-22T12:36:25;15.30;;;10.50;;
11877;SDS011;5998;42.676;23.268;2023-06-22T12:38:51;10.00;;;8.97;;
11877;SDS011;5998;42.676;23.268;2023-06-22T12:41:19;17.07;;;9.03;;
11877;SDS011;5998;42.676;23.268;2023-06-22T12:43:46;12.87;;;8.67;;
11877;SDS011;5998;42.676;23.268;2023-06-22T12:46:12;14.27;;;8.87;;
11877;SDS011;5998;42.676;23.268;2023-06-22T12:48:39;9.87;;;8.00;;
11877;SDS011;5998;42.676;23.268;2023-06-22T12:51:07;15.73;;;10.10;;
11877;SDS011;5998;42.676;23.268;2023-06-22T12:53:34;15.43;;;10.30;;
11877;SDS011;5998;42.676;23.268;2023-06-22T12:56:00;10.53;;;9.53;;
11877;SDS011;5998;42.676;23.268;2023-06-22T12:58:28;12.87;;;9.63;;
11877;SDS011;5998;42.676;23.268;2023-06-22T13:00:55;11.63;;;9.43;;
11877;SDS011;5998;42.676;23.268;2023-06-22T13:03:21;11.40;;;9.07;;
11877;SDS011;5998;42.676;23.268;2023-06-22T13:05:50;10.10;;;8.33;;
11877;SDS011;5998;42.676;23.268;2023-06-22T13:08:16;10.33;;;8.13;;
11877;SDS011;5998;42.676;23.268;2023-06-22T13:10:43;9.77;;;8.53;;
11877;SDS011;5998;42.676;23.268;2023-06-22T13:13:09;14.17;;;9.20;;
11877;SDS011;5998;42.676;23.268;2023-06-22T13:15:37;10.57;;;8.37;;
11877;SDS011;5998;42.676;23.268;2023-06-22T13:18:04;9.83;;;8.07;;
11877;SDS011;5998;42.676;23.268;2023-06-22T13:20:30;8.93;;;8.03;;
11877;SDS011;5998;42.676;23.268;2023-06-22T13:22:56;9.97;;;8.00;;
11877;SDS011;5998;42.676;23.268;2023-06-22T13:25:23;9.23;;;8.33;;
11877;SDS011;5998;42.676;23.268;2023-06-22T13:27:51;9.50;;;8.60;;
11877;SDS011;5998;42.676;23.268;2023-06-22T13:30:18;11.73;;;8.47;;
11877;SDS011;5998;42.676;23.268;2023-06-22T13:32:46;9.57;;;8.53;;
11877;SDS011;5998;42.676;23.268;2023-06-22T13:35:12;16.20;;;10.80;;
11877;SDS011;5998;42.676;23.268;2023-06-22T13:37:39;55.80;;;45.57;;
11877;SDS011;5998;42.676;23.268;2023-06-22T13:40:06;55.30;;;42.60;;
11877;SDS011;5998;42.676;23.268;2023-06-22T13:42:32;62.27;;;40.20;;
11877;SDS011;5998;42.676;23.268;2023-06-22T13:44:59;48.40;;;33.83;;
11877;SDS011;5998;42.676;23.268;2023-06-22T13:47:26;84.23;;;22.67;;
11877;SDS011;5998;42.676;23.268;2023-06-22T13:49:54;32.83;;;12.73;;
11877;SDS011;5998;42.676;23.268;2023-06-22T13:52:20;14.00;;;9.10;;
11877;SDS011;5998;42.676;23.268;2023-06-22T13:54:46;15.87;;;10.73;;
11877;SDS011;5998;42.676;23.268;2023-06-22T13:57:13;14.93;;;10.27;;
11877;SDS011;5998;42.676;23.268;2023-06-22T13:59:39;13.83;;;10.00;;
11877;SDS011;5998;42.676;23.268;2023-06-22T14:02:06;11.00;;;9.77;;
11877;SDS011;5998;42.676;23.268;2023-06-22T14:04:32;12.87;;;10.70;;
11877;SDS011;5998;42.676;23.268;2023-06-22T14:07:00;14.37;;;10.20;;
11877;SDS011;5998;42.676;23.268;2023-06-22T14:09:26;11.33;;;10.23;;
11877;SDS011;5998;42.676;23.268;2023-06-22T14:11:53;12.03;;;10.27;;
11877;SDS011;5998;42.676;23.268;2023-06-22T14:14:20;11.80;;;10.40;;
11877;SDS011;5998;42.676;23.268;2023-06-22T14:16:46;11.03;;;9.93;;
11877;SDS011;5998;42.676;23.268;2023-06-22T14:19:14;12.33;;;10.27;;
11877;SDS011;5998;42.676;23.268;2023-06-22T14:21:41;11.07;;;10.07;;
11877;SDS011;5998;42.676;23.268;2023-06-22T14:24:09;12.10;;;10.10;;
11877;SDS011;5998;42.676;23.268;2023-06-22T14:26:35;10.30;;;9.20;;
11877;SDS011;5998;42.676;23.268;2023-06-22T14:29:01;12.70;;;9.87;;
11877;SDS011;5998;42.676;23.268;2023-06-22T14:31:29;10.37;;;9.37;;